sensor_id;sensor_type;location;lat;lon;timestamp;temperature;humidity
65245;DHT22;51846;48.692;2.382;2023-10-31T00:01:05;10.13;89.33
65245;DHT22;51846;48.692;2.382;2023-10-31T00:03:31;9.77;90.54
65245;DHT22;51846;48.692;2.382;2023-10-31T00:05:59;9.77;90.21
65245;DHT22;51846;48.692;2.382;2023-10-31T00:08:25;9.85;90.18
65245;DHT22;51846;48.692;2.382;2023-10-31T00:10:50;9.57;91.41
65245;DHT22;51846;48.692;2.382;2023-10-31T00:13:16;9.48;92.03
65245;DHT22;51846;48.692;2.382;2023-10-31T00:15:41;9.39;92.27
65245;DHT22;51846;48.692;2.382;2023-10-31T00:18:07;9.32;92.58
65245;DHT22;51846;48.692;2.382;2023-10-31T00:20:32;9.31;92.61
65245;DHT22;51846;48.692;2.382;2023-10-31T00:22:57;9.35;92.65
65245;DHT22;51846;48.692;2.382;2023-10-31T00:25:23;9.32;92.33
65245;DHT22;51846;48.692;2.382;2023-10-31T00:27:48;9.39;92.15
65245;DHT22;51846;48.692;2.382;2023-10-31T00:30:14;9.32;91.83
65245;DHT22;51846;48.692;2.382;2023-10-31T00:32:39;9.28;91.82
65245;DHT22;51846;48.692;2.382;2023-10-31T00:35:05;9.29;92.04
65245;DHT22;51846;48.692;2.382;2023-10-31T00:37:30;9.32;92.12
65245;DHT22;51846;48.692;2.382;2023-10-31T00:39:56;9.52;91.74
65245;DHT22;51846;48.692;2.382;2023-10-31T00:42:21;9.25;92.03
65245;DHT22;51846;48.692;2.382;2023-10-31T00:44:46;9.19;92.31
65245;DHT22;51846;48.692;2.382;2023-10-31T00:47:12;9.29;92.29
65245;DHT22;51846;48.692;2.382;2023-10-31T00:49:37;9.28;91.96
65245;DHT22;51846;48.692;2.382;2023-10-31T00:52:03;9.26;91.76
65245;DHT22;51846;48.692;2.382;2023-10-31T00:54:28;9.25;91.75
65245;DHT22;51846;48.692;2.382;2023-10-31T00:56:54;9.28;91.58
65245;DHT22;51846;48.692;2.382;2023-10-31T00:59:19;9.36;91.41
65245;DHT22;51846;48.692;2.382;2023-10-31T01:01:44;9.39;90.72
65245;DHT22;51846;48.692;2.382;2023-10-31T01:04:10;9.31;90.78
65245;DHT22;51846;48.692;2.382;2023-10-31T01:06:42;9.55;90.49
65245;DHT22;51846;48.692;2.382;2023-10-31T01:09:08;9.69;90.18
65245;DHT22;51846;48.692;2.382;2023-10-31T01:11:34;9.63;89.95
65245;DHT22;51846;48.692;2.382;2023-10-31T01:13:59;9.65;89.92
65245;DHT22;51846;48.692;2.382;2023-10-31T01:16:25;9.63;90.01
65245;DHT22;51846;48.692;2.382;2023-10-31T01:18:50;9.56;89.67
65245;DHT22;51846;48.692;2.382;2023-10-31T01:21:15;9.63;89.88
65245;DHT22;51846;48.692;2.382;2023-10-31T01:23:41;9.67;90.03
65245;DHT22;51846;48.692;2.382;2023-10-31T01:26:06;9.72;89.39
65245;DHT22;51846;48.692;2.382;2023-10-31T01:28:31;9.69;88.20
65245;DHT22;51846;48.692;2.382;2023-10-31T01:30:57;9.62;88.30
65245;DHT22;51846;48.692;2.382;2023-10-31T01:33:22;9.59;88.44
65245;DHT22;51846;48.692;2.382;2023-10-31T01:35:48;9.55;88.58
65245;DHT22;51846;48.692;2.382;2023-10-31T01:38:13;9.60;88.77
65245;DHT22;51846;48.692;2.382;2023-10-31T01:40:39;9.26;90.53
65245;DHT22;51846;48.692;2.382;2023-10-31T01:43:04;9.04;92.05
65245;DHT22;51846;48.692;2.382;2023-10-31T01:45:30;8.95;92.56
65245;DHT22;51846;48.692;2.382;2023-10-31T01:47:55;8.92;92.78
65245;DHT22;51846;48.692;2.382;2023-10-31T01:50:21;8.88;93.02
65245;DHT22;51846;48.692;2.382;2023-10-31T01:52:46;8.91;93.11
65245;DHT22;51846;48.692;2.382;2023-10-31T01:55:12;8.95;93.30
65245;DHT22;51846;48.692;2.382;2023-10-31T01:57:38;8.97;93.42
65245;DHT22;51846;48.692;2.382;2023-10-31T02:00:04;8.94;93.35
65245;DHT22;51846;48.692;2.382;2023-10-31T02:02:32;8.97;93.47
65245;DHT22;51846;48.692;2.382;2023-10-31T02:04:59;9.00;93.44
65245;DHT22;51846;48.692;2.382;2023-10-31T02:07:24;8.97;93.42
65245;DHT22;51846;48.692;2.382;2023-10-31T02:09:49;9.04;93.60
65245;DHT22;51846;48.692;2.382;2023-10-31T02:12:34;9.05;93.61
65245;DHT22;51846;48.692;2.382;2023-10-31T02:15:00;9.11;93.77
65245;DHT22;51846;48.692;2.382;2023-10-31T02:17:26;9.15;93.91
65245;DHT22;51846;48.692;2.382;2023-10-31T02:19:51;9.24;93.75
65245;DHT22;51846;48.692;2.382;2023-10-31T02:22:17;9.26;93.37
65245;DHT22;51846;48.692;2.382;2023-10-31T02:24:42;9.29;93.24
65245;DHT22;51846;48.692;2.382;2023-10-31T02:27:07;9.32;93.29
65245;DHT22;51846;48.692;2.382;2023-10-31T02:29:32;9.40;93.26
65245;DHT22;51846;48.692;2.382;2023-10-31T02:31:58;9.39;93.40
65245;DHT22;51846;48.692;2.382;2023-10-31T02:34:23;9.42;93.48
65245;DHT22;51846;48.692;2.382;2023-10-31T02:36:48;9.46;93.66
65245;DHT22;51846;48.692;2.382;2023-10-31T02:39:14;9.48;93.69
65245;DHT22;51846;48.692;2.382;2023-10-31T02:41:39;9.53;93.80
65245;DHT22;51846;48.692;2.382;2023-10-31T02:44:05;9.60;93.90
65245;DHT22;51846;48.692;2.382;2023-10-31T02:46:30;9.69;93.69
65245;DHT22;51846;48.692;2.382;2023-10-31T02:48:55;9.69;93.76
65245;DHT22;51846;48.692;2.382;2023-10-31T02:51:21;9.73;93.85
65245;DHT22;51846;48.692;2.382;2023-10-31T02:53:46;9.76;93.85
65245;DHT22;51846;48.692;2.382;2023-10-31T02:56:11;9.77;93.97
65245;DHT22;51846;48.692;2.382;2023-10-31T02:58:37;9.79;93.96
65245;DHT22;51846;48.692;2.382;2023-10-31T03:01:02;9.80;94.06
65245;DHT22;51846;48.692;2.382;2023-10-31T03:03:28;9.82;94.14
65245;DHT22;51846;48.692;2.382;2023-10-31T03:05:53;9.83;94.18
65245;DHT22;51846;48.692;2.382;2023-10-31T03:08:19;9.87;94.25
65245;DHT22;51846;48.692;2.382;2023-10-31T03:10:47;9.93;94.13
65245;DHT22;51846;48.692;2.382;2023-10-31T03:13:15;10.00;94.22
65245;DHT22;51846;48.692;2.382;2023-10-31T03:15:41;9.97;94.20
65245;DHT22;51846;48.692;2.382;2023-10-31T03:18:06;9.97;94.19
65245;DHT22;51846;48.692;2.382;2023-10-31T03:20:31;10.06;94.06
65245;DHT22;51846;48.692;2.382;2023-10-31T03:22:57;10.07;93.94
65245;DHT22;51846;48.692;2.382;2023-10-31T03:25:22;10.07;93.96
65245;DHT22;51846;48.692;2.382;2023-10-31T03:27:48;10.07;94.00
65245;DHT22;51846;48.692;2.382;2023-10-31T03:30:13;10.09;93.96
65245;DHT22;51846;48.692;2.382;2023-10-31T03:32:38;10.09;93.74
65245;DHT22;51846;48.692;2.382;2023-10-31T03:35:04;10.13;93.73
65245;DHT22;51846;48.692;2.382;2023-10-31T03:37:30;10.17;93.52
65245;DHT22;51846;48.692;2.382;2023-10-31T03:39:55;10.16;93.53
65245;DHT22;51846;48.692;2.382;2023-10-31T03:42:20;10.18;93.46
65245;DHT22;51846;48.692;2.382;2023-10-31T03:44:45;10.29;93.52
65245;DHT22;51846;48.692;2.382;2023-10-31T03:47:11;10.24;93.41
65245;DHT22;51846;48.692;2.382;2023-10-31T03:49:40;10.43;93.27
65245;DHT22;51846;48.692;2.382;2023-10-31T03:52:05;10.33;92.78
65245;DHT22;51846;48.692;2.382;2023-10-31T03:54:31;10.36;92.97
65245;DHT22;51846;48.692;2.382;2023-10-31T03:56:56;10.40;92.60
65245;DHT22;51846;48.692;2.382;2023-10-31T03:59:21;10.51;92.19
65245;DHT22;51846;48.692;2.382;2023-10-31T04:01:47;10.45;91.91
65245;DHT22;51846;48.692;2.382;2023-10-31T04:04:12;10.40;92.18
65245;DHT22;51846;48.692;2.382;2023-10-31T04:06:37;10.51;91.94
65245;DHT22;51846;48.692;2.382;2023-10-31T04:09:06;10.54;91.89
65245;DHT22;51846;48.692;2.382;2023-10-31T04:11:31;10.51;91.84
65245;DHT22;51846;48.692;2.382;2023-10-31T04:13:57;10.58;92.23
65245;DHT22;51846;48.692;2.382;2023-10-31T04:16:22;10.60;92.18
65245;DHT22;51846;48.692;2.382;2023-10-31T04:18:48;10.63;92.11
65245;DHT22;51846;48.692;2.382;2023-10-31T04:21:13;10.64;91.98
65245;DHT22;51846;48.692;2.382;2023-10-31T04:23:39;10.51;92.30
65245;DHT22;51846;48.692;2.382;2023-10-31T04:26:05;10.58;92.41
65245;DHT22;51846;48.692;2.382;2023-10-31T04:28:30;10.71;92.30
65245;DHT22;51846;48.692;2.382;2023-10-31T04:30:56;10.61;92.30
65245;DHT22;51846;48.692;2.382;2023-10-31T04:33:21;10.57;92.60
65245;DHT22;51846;48.692;2.382;2023-10-31T04:35:46;10.69;92.57
65245;DHT22;51846;48.692;2.382;2023-10-31T04:38:12;10.60;92.50
65245;DHT22;51846;48.692;2.382;2023-10-31T04:40:37;10.71;92.64
65245;DHT22;51846;48.692;2.382;2023-10-31T04:43:02;10.79;92.34
65245;DHT22;51846;48.692;2.382;2023-10-31T04:45:28;10.89;92.03
65245;DHT22;51846;48.692;2.382;2023-10-31T04:47:53;10.91;91.69
65245;DHT22;51846;48.692;2.382;2023-10-31T04:50:19;10.67;92.51
65245;DHT22;51846;48.692;2.382;2023-10-31T04:52:44;10.58;93.08
65245;DHT22;51846;48.692;2.382;2023-10-31T04:55:09;10.55;93.36
65245;DHT22;51846;48.692;2.382;2023-10-31T04:57:35;10.54;93.55
65245;DHT22;51846;48.692;2.382;2023-10-31T05:00:00;10.57;93.66
65245;DHT22;51846;48.692;2.382;2023-10-31T05:02:25;10.61;93.67
65245;DHT22;51846;48.692;2.382;2023-10-31T05:04:51;10.63;93.69
65245;DHT22;51846;48.692;2.382;2023-10-31T05:07:17;10.60;93.68
65245;DHT22;51846;48.692;2.382;2023-10-31T05:09:42;10.69;93.76
65245;DHT22;51846;48.692;2.382;2023-10-31T05:12:08;10.69;93.67
65245;DHT22;51846;48.692;2.382;2023-10-31T05:14:33;10.69;93.72
65245;DHT22;51846;48.692;2.382;2023-10-31T05:16:59;10.69;93.74
65245;DHT22;51846;48.692;2.382;2023-10-31T05:19:24;10.69;93.86
65245;DHT22;51846;48.692;2.382;2023-10-31T05:21:49;10.72;93.98
65245;DHT22;51846;48.692;2.382;2023-10-31T05:24:15;10.68;94.11
65245;DHT22;51846;48.692;2.382;2023-10-31T05:26:40;10.71;94.26
65245;DHT22;51846;48.692;2.382;2023-10-31T05:29:08;10.69;94.26
65245;DHT22;51846;48.692;2.382;2023-10-31T05:31:33;10.76;94.27
65245;DHT22;51846;48.692;2.382;2023-10-31T05:33:58;10.85;94.10
65245;DHT22;51846;48.692;2.382;2023-10-31T05:36:25;10.81;93.84
65245;DHT22;51846;48.692;2.382;2023-10-31T05:38:50;10.92;93.70
65245;DHT22;51846;48.692;2.382;2023-10-31T05:41:16;11.08;93.40
65245;DHT22;51846;48.692;2.382;2023-10-31T05:43:42;11.11;92.85
65245;DHT22;51846;48.692;2.382;2023-10-31T05:46:08;11.16;92.54
65245;DHT22;51846;48.692;2.382;2023-10-31T05:48:39;11.20;92.24
65245;DHT22;51846;48.692;2.382;2023-10-31T05:51:11;11.23;91.90
65245;DHT22;51846;48.692;2.382;2023-10-31T05:53:39;11.22;91.71
65245;DHT22;51846;48.692;2.382;2023-10-31T05:56:05;11.11;91.77
65245;DHT22;51846;48.692;2.382;2023-10-31T05:58:32;10.95;91.91
65245;DHT22;51846;48.692;2.382;2023-10-31T06:00:57;10.94;92.03
65245;DHT22;51846;48.692;2.382;2023-10-31T06:03:23;10.91;92.13
65245;DHT22;51846;48.692;2.382;2023-10-31T06:05:48;10.95;92.17
65245;DHT22;51846;48.692;2.382;2023-10-31T06:08:14;10.95;91.79
65245;DHT22;51846;48.692;2.382;2023-10-31T06:10:39;10.91;91.58
65245;DHT22;51846;48.692;2.382;2023-10-31T06:13:04;10.91;91.75
65245;DHT22;51846;48.692;2.382;2023-10-31T06:15:29;10.86;91.79
65245;DHT22;51846;48.692;2.382;2023-10-31T06:17:55;10.81;91.97
65245;DHT22;51846;48.692;2.382;2023-10-31T06:20:20;10.91;92.10
65245;DHT22;51846;48.692;2.382;2023-10-31T06:22:46;10.99;91.65
65245;DHT22;51846;48.692;2.382;2023-10-31T06:25:11;11.01;91.28
65245;DHT22;51846;48.692;2.382;2023-10-31T06:27:37;11.04;91.18
65245;DHT22;51846;48.692;2.382;2023-10-31T06:30:02;10.99;90.98
65245;DHT22;51846;48.692;2.382;2023-10-31T06:32:27;11.12;90.94
65245;DHT22;51846;48.692;2.382;2023-10-31T06:34:53;11.22;90.48
65245;DHT22;51846;48.692;2.382;2023-10-31T06:37:18;11.08;90.38
65245;DHT22;51846;48.692;2.382;2023-10-31T06:39:43;11.23;90.20
65245;DHT22;51846;48.692;2.382;2023-10-31T06:42:09;11.28;90.06
65245;DHT22;51846;48.692;2.382;2023-10-31T06:44:34;10.98;90.75
65245;DHT22;51846;48.692;2.382;2023-10-31T06:47:00;10.86;91.27
65245;DHT22;51846;48.692;2.382;2023-10-31T06:49:26;11.01;91.09
65245;DHT22;51846;48.692;2.382;2023-10-31T06:51:51;11.12;90.98
65245;DHT22;51846;48.692;2.382;2023-10-31T06:54:16;11.20;90.92
65245;DHT22;51846;48.692;2.382;2023-10-31T06:56:42;11.19;90.58
65245;DHT22;51846;48.692;2.382;2023-10-31T06:59:07;11.28;90.40
65245;DHT22;51846;48.692;2.382;2023-10-31T07:01:33;11.32;90.15
65245;DHT22;51846;48.692;2.382;2023-10-31T07:03:59;11.15;90.62
65245;DHT22;51846;48.692;2.382;2023-10-31T07:06:25;11.12;90.54
65245;DHT22;51846;48.692;2.382;2023-10-31T07:08:50;11.25;90.62
65245;DHT22;51846;48.692;2.382;2023-10-31T07:11:15;11.25;90.56
65245;DHT22;51846;48.692;2.382;2023-10-31T07:13:41;11.38;90.36
65245;DHT22;51846;48.692;2.382;2023-10-31T07:16:06;11.20;90.61
65245;DHT22;51846;48.692;2.382;2023-10-31T07:18:32;11.28;90.98
65245;DHT22;51846;48.692;2.382;2023-10-31T07:20:57;11.38;90.58
65245;DHT22;51846;48.692;2.382;2023-10-31T07:23:23;11.46;90.43
65245;DHT22;51846;48.692;2.382;2023-10-31T07:25:48;11.26;91.04
65245;DHT22;51846;48.692;2.382;2023-10-31T07:28:14;11.36;91.07
65245;DHT22;51846;48.692;2.382;2023-10-31T07:30:39;11.25;91.47
65245;DHT22;51846;48.692;2.382;2023-10-31T07:33:05;11.40;91.29
65245;DHT22;51846;48.692;2.382;2023-10-31T07:35:30;11.49;90.99
65245;DHT22;51846;48.692;2.382;2023-10-31T07:37:56;11.53;91.29
65245;DHT22;51846;48.692;2.382;2023-10-31T07:40:21;11.53;90.96
65245;DHT22;51846;48.692;2.382;2023-10-31T07:42:46;11.60;91.04
65245;DHT22;51846;48.692;2.382;2023-10-31T07:45:12;11.60;90.76
65245;DHT22;51846;48.692;2.382;2023-10-31T07:47:37;11.71;90.69
65245;DHT22;51846;48.692;2.382;2023-10-31T07:50:03;11.76;90.38
65245;DHT22;51846;48.692;2.382;2023-10-31T07:52:29;11.77;90.13
65245;DHT22;51846;48.692;2.382;2023-10-31T07:54:55;11.86;89.93
65245;DHT22;51846;48.692;2.382;2023-10-31T07:57:20;11.63;90.67
65245;DHT22;51846;48.692;2.382;2023-10-31T07:59:46;11.50;91.35
65245;DHT22;51846;48.692;2.382;2023-10-31T08:02:11;11.59;91.34
65245;DHT22;51846;48.692;2.382;2023-10-31T08:04:36;11.65;91.16
65245;DHT22;51846;48.692;2.382;2023-10-31T08:07:02;11.71;90.67
65245;DHT22;51846;48.692;2.382;2023-10-31T08:09:27;11.79;90.13
65245;DHT22;51846;48.692;2.382;2023-10-31T08:11:52;11.69;90.54
65245;DHT22;51846;48.692;2.382;2023-10-31T08:14:18;11.74;90.67
65245;DHT22;51846;48.692;2.382;2023-10-31T08:16:44;11.83;89.88
65245;DHT22;51846;48.692;2.382;2023-10-31T08:19:09;11.86;89.64
65245;DHT22;51846;48.692;2.382;2023-10-31T08:21:35;11.94;89.62
65245;DHT22;51846;48.692;2.382;2023-10-31T08:24:02;11.94;89.51
65245;DHT22;51846;48.692;2.382;2023-10-31T08:26:29;11.94;89.53
65245;DHT22;51846;48.692;2.382;2023-10-31T08:28:54;11.94;89.57
65245;DHT22;51846;48.692;2.382;2023-10-31T08:31:20;12.03;88.80
65245;DHT22;51846;48.692;2.382;2023-10-31T08:33:45;12.11;88.50
65245;DHT22;51846;48.692;2.382;2023-10-31T08:36:10;12.14;88.12
65245;DHT22;51846;48.692;2.382;2023-10-31T08:38:36;12.14;88.43
65245;DHT22;51846;48.692;2.382;2023-10-31T08:41:01;12.14;87.51
65245;DHT22;51846;48.692;2.382;2023-10-31T08:43:27;12.11;87.66
65245;DHT22;51846;48.692;2.382;2023-10-31T08:45:52;12.14;87.95
65245;DHT22;51846;48.692;2.382;2023-10-31T08:48:18;12.16;88.01
65245;DHT22;51846;48.692;2.382;2023-10-31T08:50:43;12.18;88.14
65245;DHT22;51846;48.692;2.382;2023-10-31T08:53:09;12.20;87.68
65245;DHT22;51846;48.692;2.382;2023-10-31T08:55:35;12.25;87.42
65245;DHT22;51846;48.692;2.382;2023-10-31T08:58:00;12.24;87.76
65245;DHT22;51846;48.692;2.382;2023-10-31T09:00:25;12.27;87.82
65245;DHT22;51846;48.692;2.382;2023-10-31T09:02:53;12.30;87.32
65245;DHT22;51846;48.692;2.382;2023-10-31T09:05:19;12.28;87.80
65245;DHT22;51846;48.692;2.382;2023-10-31T09:07:44;12.33;87.81
65245;DHT22;51846;48.692;2.382;2023-10-31T09:10:11;12.40;87.67
65245;DHT22;51846;48.692;2.382;2023-10-31T09:12:37;12.41;87.39
65245;DHT22;51846;48.692;2.382;2023-10-31T09:15:02;12.42;87.72
65245;DHT22;51846;48.692;2.382;2023-10-31T09:17:28;12.42;87.62
65245;DHT22;51846;48.692;2.382;2023-10-31T09:19:53;12.44;87.64
65245;DHT22;51846;48.692;2.382;2023-10-31T09:22:19;12.52;86.86
65245;DHT22;51846;48.692;2.382;2023-10-31T09:24:45;12.51;86.89
65245;DHT22;51846;48.692;2.382;2023-10-31T09:27:10;12.52;86.94
65245;DHT22;51846;48.692;2.382;2023-10-31T09:29:35;12.54;86.94
65245;DHT22;51846;48.692;2.382;2023-10-31T09:32:04;12.58;86.76
65245;DHT22;51846;48.692;2.382;2023-10-31T09:34:31;12.58;87.11
65245;DHT22;51846;48.692;2.382;2023-10-31T09:36:57;12.59;86.49
65245;DHT22;51846;48.692;2.382;2023-10-31T09:39:23;12.58;86.57
65245;DHT22;51846;48.692;2.382;2023-10-31T09:41:48;12.55;86.17
65245;DHT22;51846;48.692;2.382;2023-10-31T09:44:13;12.59;86.21
65245;DHT22;51846;48.692;2.382;2023-10-31T09:46:39;12.59;86.08
65245;DHT22;51846;48.692;2.382;2023-10-31T09:49:06;12.64;85.86
65245;DHT22;51846;48.692;2.382;2023-10-31T09:51:32;12.58;85.60
65245;DHT22;51846;48.692;2.382;2023-10-31T09:53:58;12.59;85.98
65245;DHT22;51846;48.692;2.382;2023-10-31T09:56:24;12.64;86.48
65245;DHT22;51846;48.692;2.382;2023-10-31T09:58:51;12.66;85.75
65245;DHT22;51846;48.692;2.382;2023-10-31T10:01:16;12.64;85.71
65245;DHT22;51846;48.692;2.382;2023-10-31T10:03:42;12.66;85.64
65245;DHT22;51846;48.692;2.382;2023-10-31T10:06:09;12.68;85.42
65245;DHT22;51846;48.692;2.382;2023-10-31T10:08:38;12.71;85.19
65245;DHT22;51846;48.692;2.382;2023-10-31T10:11:05;12.71;84.86
65245;DHT22;51846;48.692;2.382;2023-10-31T10:13:30;12.72;84.35
65245;DHT22;51846;48.692;2.382;2023-10-31T10:15:55;12.76;84.41
65245;DHT22;51846;48.692;2.382;2023-10-31T10:18:25;12.78;84.54
65245;DHT22;51846;48.692;2.382;2023-10-31T10:21:02;12.81;83.81
65245;DHT22;51846;48.692;2.382;2023-10-31T10:23:28;12.84;84.00
65245;DHT22;51846;48.692;2.382;2023-10-31T10:25:55;12.88;83.94
65245;DHT22;51846;48.692;2.382;2023-10-31T10:28:21;12.93;83.65
65245;DHT22;51846;48.692;2.382;2023-10-31T10:30:49;13.02;83.60
65245;DHT22;51846;48.692;2.382;2023-10-31T10:33:15;13.06;83.79
65245;DHT22;51846;48.692;2.382;2023-10-31T10:35:42;13.12;83.26
65245;DHT22;51846;48.692;2.382;2023-10-31T10:38:10;13.18;82.57
65245;DHT22;51846;48.692;2.382;2023-10-31T10:40:39;13.22;82.35
65245;DHT22;51846;48.692;2.382;2023-10-31T10:43:06;13.22;82.25
65245;DHT22;51846;48.692;2.382;2023-10-31T10:45:38;13.20;81.77
65245;DHT22;51846;48.692;2.382;2023-10-31T10:48:11;13.26;82.17
65245;DHT22;51846;48.692;2.382;2023-10-31T10:50:42;13.26;80.92
65245;DHT22;51846;48.692;2.382;2023-10-31T10:53:13;13.27;81.57
65245;DHT22;51846;48.692;2.382;2023-10-31T10:55:45;13.30;81.37
65245;DHT22;51846;48.692;2.382;2023-10-31T11:00:58;13.36;81.64
65245;DHT22;51846;48.692;2.382;2023-10-31T11:03:24;13.40;81.70
65245;DHT22;51846;48.692;2.382;2023-10-31T11:05:50;13.50;80.92
65245;DHT22;51846;48.692;2.382;2023-10-31T11:08:16;13.59;80.48
65245;DHT22;51846;48.692;2.382;2023-10-31T11:10:42;13.67;79.87
65245;DHT22;51846;48.692;2.382;2023-10-31T11:13:08;13.66;80.08
65245;DHT22;51846;48.692;2.382;2023-10-31T11:15:34;13.71;80.29
65245;DHT22;51846;48.692;2.382;2023-10-31T11:18:00;13.77;79.52
65245;DHT22;51846;48.692;2.382;2023-10-31T11:20:28;13.84;79.27
65245;DHT22;51846;48.692;2.382;2023-10-31T11:22:55;13.87;79.09
65245;DHT22;51846;48.692;2.382;2023-10-31T11:25:25;13.94;78.90
65245;DHT22;51846;48.692;2.382;2023-10-31T11:27:51;13.87;79.17
65245;DHT22;51846;48.692;2.382;2023-10-31T11:30:22;13.84;79.68
65245;DHT22;51846;48.692;2.382;2023-10-31T11:33:14;13.84;79.20
65245;DHT22;51846;48.692;2.382;2023-10-31T11:35:40;13.83;79.78
65245;DHT22;51846;48.692;2.382;2023-10-31T11:38:09;13.91;79.42
65245;DHT22;51846;48.692;2.382;2023-10-31T11:41:00;13.98;79.35
65245;DHT22;51846;48.692;2.382;2023-10-31T11:43:35;14.04;78.73
65245;DHT22;51846;48.692;2.382;2023-10-31T11:46:01;14.03;79.20
65245;DHT22;51846;48.692;2.382;2023-10-31T11:48:56;14.07;79.49
65245;DHT22;51846;48.692;2.382;2023-10-31T11:51:22;14.14;78.68
65245;DHT22;51846;48.692;2.382;2023-10-31T11:53:48;14.14;79.37
65245;DHT22;51846;48.692;2.382;2023-10-31T11:56:15;14.20;79.21
65245;DHT22;51846;48.692;2.382;2023-10-31T11:58:40;14.25;78.40
65245;DHT22;51846;48.692;2.382;2023-10-31T12:01:10;14.39;78.37
65245;DHT22;51846;48.692;2.382;2023-10-31T12:03:40;14.39;78.45
65245;DHT22;51846;48.692;2.382;2023-10-31T12:06:07;14.39;78.33
65245;DHT22;51846;48.692;2.382;2023-10-31T12:08:37;14.39;78.65
65245;DHT22;51846;48.692;2.382;2023-10-31T12:11:13;14.38;78.30
65245;DHT22;51846;48.692;2.382;2023-10-31T12:13:51;14.52;79.20
65245;DHT22;51846;48.692;2.382;2023-10-31T12:16:17;14.59;78.47
65245;DHT22;51846;48.692;2.382;2023-10-31T12:18:43;14.73;78.47
65245;DHT22;51846;48.692;2.382;2023-10-31T12:21:08;14.80;77.79
65245;DHT22;51846;48.692;2.382;2023-10-31T12:23:36;14.80;77.31
65245;DHT22;51846;48.692;2.382;2023-10-31T12:26:02;14.85;77.07
65245;DHT22;51846;48.692;2.382;2023-10-31T12:28:27;14.85;77.58
65245;DHT22;51846;48.692;2.382;2023-10-31T12:30:55;14.85;76.66
65245;DHT22;51846;48.692;2.382;2023-10-31T12:33:22;14.89;76.68
65245;DHT22;51846;48.692;2.382;2023-10-31T12:35:51;15.00;75.25
65245;DHT22;51846;48.692;2.382;2023-10-31T12:38:18;15.13;75.49
65245;DHT22;51846;48.692;2.382;2023-10-31T12:40:44;15.26;74.63
65245;DHT22;51846;48.692;2.382;2023-10-31T12:43:10;15.34;75.58
65245;DHT22;51846;48.692;2.382;2023-10-31T12:45:36;15.32;75.25
65245;DHT22;51846;48.692;2.382;2023-10-31T12:48:06;15.20;73.90
65245;DHT22;51846;48.692;2.382;2023-10-31T12:50:34;15.19;74.81
65245;DHT22;51846;48.692;2.382;2023-10-31T12:53:00;15.09;75.13
65245;DHT22;51846;48.692;2.382;2023-10-31T12:55:27;15.04;74.84
65245;DHT22;51846;48.692;2.382;2023-10-31T12:57:53;15.04;74.65
65245;DHT22;51846;48.692;2.382;2023-10-31T13:00:20;15.06;74.46
65245;DHT22;51846;48.692;2.382;2023-10-31T13:03:00;15.07;74.62
65245;DHT22;51846;48.692;2.382;2023-10-31T13:05:27;15.09;74.80
65245;DHT22;51846;48.692;2.382;2023-10-31T13:07:54;15.14;75.69
65245;DHT22;51846;48.692;2.382;2023-10-31T13:10:22;15.19;75.39
65245;DHT22;51846;48.692;2.382;2023-10-31T13:12:48;15.16;75.20
65245;DHT22;51846;48.692;2.382;2023-10-31T13:15:19;15.19;75.68
65245;DHT22;51846;48.692;2.382;2023-10-31T13:17:45;15.13;76.18
65245;DHT22;51846;48.692;2.382;2023-10-31T13:20:11;15.13;75.63
65245;DHT22;51846;48.692;2.382;2023-10-31T13:22:38;15.07;75.37
65245;DHT22;51846;48.692;2.382;2023-10-31T13:25:05;15.10;76.01
65245;DHT22;51846;48.692;2.382;2023-10-31T13:27:33;15.00;76.33
65245;DHT22;51846;48.692;2.382;2023-10-31T13:29:58;15.03;76.43
65245;DHT22;51846;48.692;2.382;2023-10-31T13:32:24;15.03;76.87
65245;DHT22;51846;48.692;2.382;2023-10-31T13:34:49;15.07;76.29
65245;DHT22;51846;48.692;2.382;2023-10-31T13:37:15;15.13;76.01
65245;DHT22;51846;48.692;2.382;2023-10-31T13:39:40;15.13;75.77
65245;DHT22;51846;48.692;2.382;2023-10-31T13:42:06;15.10;76.47
65245;DHT22;51846;48.692;2.382;2023-10-31T13:44:31;15.16;75.80
65245;DHT22;51846;48.692;2.382;2023-10-31T13:46:56;15.19;75.96
65245;DHT22;51846;48.692;2.382;2023-10-31T13:49:22;15.24;76.07
65245;DHT22;51846;48.692;2.382;2023-10-31T13:51:47;15.23;75.65
65245;DHT22;51846;48.692;2.382;2023-10-31T13:54:15;15.27;76.20
65245;DHT22;51846;48.692;2.382;2023-10-31T13:56:41;15.20;77.33
65245;DHT22;51846;48.692;2.382;2023-10-31T13:59:06;15.23;76.58
65245;DHT22;51846;48.692;2.382;2023-10-31T14:01:32;15.26;75.86
65245;DHT22;51846;48.692;2.382;2023-10-31T14:03:57;15.29;76.70
65245;DHT22;51846;48.692;2.382;2023-10-31T14:06:22;15.22;76.79
65245;DHT22;51846;48.692;2.382;2023-10-31T14:08:50;15.20;76.73
65245;DHT22;51846;48.692;2.382;2023-10-31T14:11:15;15.23;76.16
65245;DHT22;51846;48.692;2.382;2023-10-31T14:13:41;15.27;75.71
65245;DHT22;51846;48.692;2.382;2023-10-31T14:16:07;15.19;76.36
65245;DHT22;51846;48.692;2.382;2023-10-31T14:18:33;15.09;77.07
65245;DHT22;51846;48.692;2.382;2023-10-31T14:20:58;15.16;76.94
65245;DHT22;51846;48.692;2.382;2023-10-31T14:23:24;15.19;76.62
65245;DHT22;51846;48.692;2.382;2023-10-31T14:25:50;15.26;76.04
65245;DHT22;51846;48.692;2.382;2023-10-31T14:28:15;15.14;76.60
65245;DHT22;51846;48.692;2.382;2023-10-31T14:30:40;15.24;77.21
65245;DHT22;51846;48.692;2.382;2023-10-31T14:33:05;15.33;77.09
65245;DHT22;51846;48.692;2.382;2023-10-31T14:35:31;15.33;76.47
65245;DHT22;51846;48.692;2.382;2023-10-31T14:37:56;15.34;77.08
65245;DHT22;51846;48.692;2.382;2023-10-31T14:40:21;15.32;76.24
65245;DHT22;51846;48.692;2.382;2023-10-31T14:42:47;15.29;76.34
65245;DHT22;51846;48.692;2.382;2023-10-31T14:45:12;15.37;75.98
65245;DHT22;51846;48.692;2.382;2023-10-31T14:47:37;15.39;75.99
65245;DHT22;51846;48.692;2.382;2023-10-31T14:50:03;15.46;75.18
65245;DHT22;51846;48.692;2.382;2023-10-31T14:52:29;15.50;75.03
65245;DHT22;51846;48.692;2.382;2023-10-31T14:54:54;15.49;76.23
65245;DHT22;51846;48.692;2.382;2023-10-31T14:57:19;15.51;75.32
65245;DHT22;51846;48.692;2.382;2023-10-31T14:59:45;15.49;75.42
65245;DHT22;51846;48.692;2.382;2023-10-31T15:02:10;15.55;75.27
65245;DHT22;51846;48.692;2.382;2023-10-31T15:04:36;15.57;75.19
65245;DHT22;51846;48.692;2.382;2023-10-31T15:07:01;15.57;75.65
65245;DHT22;51846;48.692;2.382;2023-10-31T15:09:26;15.58;74.90
65245;DHT22;51846;48.692;2.382;2023-10-31T15:11:52;15.43;74.77
65245;DHT22;51846;48.692;2.382;2023-10-31T15:14:17;15.51;74.76
65245;DHT22;51846;48.692;2.382;2023-10-31T15:16:42;15.50;75.14
65245;DHT22;51846;48.692;2.382;2023-10-31T15:19:08;15.55;74.93
65245;DHT22;51846;48.692;2.382;2023-10-31T15:21:33;15.50;75.01
65245;DHT22;51846;48.692;2.382;2023-10-31T15:23:58;15.42;75.52
65245;DHT22;51846;48.692;2.382;2023-10-31T15:26:24;15.42;75.50
65245;DHT22;51846;48.692;2.382;2023-10-31T15:28:51;15.29;76.31
65245;DHT22;51846;48.692;2.382;2023-10-31T15:31:17;15.39;75.62